Time;durP1;ratioP1;P1;durP2;ratioP2;P2;SDS_P1;SDS_P2;PMS_P1;PMS_P2;Temp;Humidity;BMP_temperature;BMP_pressure;BME280_temperature;BME280_humidity;BME280_pressure;Samples;Min_cycle;Max_cycle;Signal;HPM_P1;HPM_P2
2022/01/11 00:00:45;;;;;;;;;;;9.90;99.90;;;;;;4919128;29;20349;-87
2022/01/11 00:03:12;;;;;;;;;;;9.80;99.90;;;;;;4918770;29;19975;-87
2022/01/11 00:05:47;;;;;;;;;;;9.90;99.90;;;;;;4918624;29;19931;-87
2022/01/11 00:08:15;;;;;;;;;;;9.90;99.90;;;;;;4918647;29;19927;-87
2022/01/11 00:10:49;;;;;;;;;;;9.80;99.90;;;;;;4918883;29;19927;-87
2022/01/11 00:13:16;;;;;;;;;;;9.80;99.90;;;;;;4918674;29;19938;-87
2022/01/11 00:15:42;;;;;;;;;;;9.90;99.90;;;;;;4918647;29;19931;-87
2022/01/11 00:18:09;;;;;;;;;;;9.80;99.90;;;;;;4918763;29;19927;-86
2022/01/11 00:20:38;;;;;;;;;;;9.80;99.90;;;;;;4919812;29;19927;-87
2022/01/11 00:25:51;;;;;;;;;;;9.80;99.90;;;;;;4918830;29;19935;-87
2022/01/11 00:28:20;;;;;;;;;;;10.10;99.90;;;;;;4914853;29;19927;-87
2022/01/11 00:30:48;;;;;;;;;;;9.90;99.90;;;;;;4917746;29;19927;-87
2022/01/11 00:33:18;;;;;;;;;;;9.80;99.90;;;;;;4917669;29;19938;-87
2022/01/11 00:35:49;;;;;;;;;;;9.80;99.90;;;;;;4903682;29;19932;-87
2022/01/11 00:38:20;;;;;;;;;;;9.80;99.90;;;;;;4898902;29;19982;-87
2022/01/11 00:40:47;;;;;;;;;;;9.80;99.90;;;;;;4913069;29;19927;-87
2022/01/11 00:43:15;;;;;;;;;;;9.80;99.90;;;;;;4917970;29;19927;-87
2022/01/11 00:45:42;;;;;;;;;;;9.80;99.90;;;;;;4915990;29;19927;-87
2022/01/11 00:48:09;;;;;;;;;;;9.70;99.90;;;;;;4898343;29;19927;-86
2022/01/11 00:50:36;;;;;;;;;;;9.70;99.90;;;;;;4878279;29;19932;-86
2022/01/11 00:53:03;;;;;;;;;;;9.70;99.90;;;;;;4880203;29;20382;-86
2022/01/11 00:55:32;;;;;;;;;;;9.70;99.90;;;;;;4880414;29;19928;-86
2022/01/11 00:57:58;;;;;;;;;;;9.70;99.90;;;;;;4915856;29;19928;-87
2022/01/11 01:00:25;;;;;;;;;;;9.70;99.90;;;;;;4917649;29;20354;-87
2022/01/11 01:02:53;;;;;;;;;;;9.70;99.90;;;;;;4908005;29;19927;-86
2022/01/11 01:05:21;;;;;;;;;;;9.70;99.90;;;;;;4898445;29;19935;-87
2022/01/11 01:07:48;;;;;;;;;;;9.70;99.90;;;;;;4897597;29;20465;-86
2022/01/11 01:10:24;;;;;;;;;;;10.10;99.90;;;;;;4917355;29;19931;-85
2022/01/11 01:12:52;;;;;;;;;;;10.20;99.90;;;;;;4911390;29;20394;-86
2022/01/11 01:15:19;;;;;;;;;;;10.10;99.90;;;;;;4899004;29;19935;-86
2022/01/11 01:17:46;;;;;;;;;;;10.30;99.90;;;;;;4905614;29;20030;-86
2022/01/11 01:20:13;;;;;;;;;;;9.90;99.90;;;;;;4898827;29;19927;-86
2022/01/11 01:22:40;;;;;;;;;;;10.00;99.90;;;;;;4898727;29;19927;-86
2022/01/11 01:25:07;;;;;;;;;;;9.80;99.90;;;;;;4898621;29;19931;-86
2022/01/11 01:27:34;;;;;;;;;;;9.80;99.90;;;;;;4911457;29;20427;-86
2022/01/11 01:30:03;;;;;;;;;;;9.80;99.90;;;;;;4917798;29;19927;-86
2022/01/11 01:32:30;;;;;;;;;;;9.80;99.90;;;;;;4917477;29;19927;-86
2022/01/11 01:35:01;;;;;;;;;;;9.70;99.90;;;;;;4917915;29;19967;-86
2022/01/11 01:37:28;;;;;;;;;;;9.90;99.90;;;;;;4917097;29;19928;-86
2022/01/11 01:39:55;;;;;;;;;;;9.90;99.90;;;;;;4917752;29;19931;-86
2022/01/11 01:42:23;;;;;;;;;;;9.80;99.90;;;;;;4917598;29;20301;-86
2022/01/11 01:44:50;;;;;;;;;;;9.70;99.90;;;;;;4917426;29;19927;-86
2022/01/11 01:47:18;;;;;;;;;;;9.70;99.90;;;;;;4916181;29;20434;-86
2022/01/11 01:49:45;;;;;;;;;;;9.70;99.90;;;;;;4916883;29;20294;-86
2022/01/11 01:52:14;;;;;;;;;;;9.50;99.90;;;;;;4917016;29;20378;-86
2022/01/11 01:54:41;;;;;;;;;;;9.60;99.90;;;;;;4917325;29;19976;-87
2022/01/11 01:57:08;;;;;;;;;;;9.60;99.90;;;;;;4916633;29;19928;-85
2022/01/11 01:59:35;;;;;;;;;;;10.40;99.90;;;;;;4916461;29;20430;-86
2022/01/11 02:02:02;;;;;;;;;;;9.60;99.90;;;;;;4917160;29;19964;-86
2022/01/11 02:04:30;;;;;;;;;;;9.60;99.90;;;;;;4920904;29;19927;-86
2022/01/11 02:06:57;;;;;;;;;;;9.70;99.90;;;;;;4919779;29;20466;-86
2022/01/11 02:09:23;;;;;;;;;;;9.60;99.90;;;;;;4920401;29;20335;-86
2022/01/11 02:11:50;;;;;;;;;;;9.60;99.90;;;;;;4920209;29;20334;-86
2022/01/11 02:14:17;;;;;;;;;;;9.50;99.90;;;;;;4920941;29;19943;-86
2022/01/11 02:16:44;;;;;;;;;;;9.60;99.90;;;;;;4920633;29;19927;-86
2022/01/11 02:19:11;;;;;;;;;;;9.60;99.90;;;;;;4920586;29;19935;-86
2022/01/11 02:21:39;;;;;;;;;;;9.60;99.90;;;;;;4921185;29;19931;-86
2022/01/11 02:24:06;;;;;;;;;;;9.60;99.90;;;;;;4920859;29;20026;-86
2022/01/11 02:26:33;;;;;;;;;;;9.60;99.90;;;;;;4920102;29;19927;-86
2022/01/11 02:28:59;;;;;;;;;;;9.50;99.90;;;;;;4920376;29;20402;-86
2022/01/11 02:31:26;;;;;;;;;;;9.60;99.90;;;;;;4912925;29;19927;-86
2022/01/11 02:33:54;;;;;;;;;;;9.60;99.90;;;;;;4920045;29;20311;-86
2022/01/11 02:36:22;;;;;;;;;;;9.60;99.90;;;;;;4920416;29;19933;-86
2022/01/11 02:38:52;;;;;;;;;;;9.60;99.90;;;;;;4920303;29;19931;-86
2022/01/11 02:41:19;;;;;;;;;;;9.60;99.90;;;;;;4920019;29;19931;-86
2022/01/11 02:43:47;;;;;;;;;;;9.60;99.90;;;;;;4919694;29;20293;-86
2022/01/11 02:46:15;;;;;;;;;;;9.60;99.90;;;;;;4920184;29;20013;-86
2022/01/11 02:48:42;;;;;;;;;;;9.60;99.90;;;;;;4919467;29;20390;-87
2022/01/11 02:51:09;;;;;;;;;;;9.60;99.90;;;;;;4919978;29;19999;-86
2022/01/11 02:53:39;;;;;;;;;;;9.90;99.90;;;;;;4918847;29;19931;-86
2022/01/11 02:56:08;;;;;;;;;;;9.60;99.90;;;;;;4919575;29;20000;-87
2022/01/11 02:58:34;;;;;;;;;;;9.60;99.90;;;;;;4920335;29;19941;-86
2022/01/11 03:01:01;;;;;;;;;;;9.60;99.90;;;;;;4920488;29;19927;-86
2022/01/11 03:03:28;;;;;;;;;;;9.60;99.90;;;;;;4920069;29;19931;-86
2022/01/11 03:05:56;;;;;;;;;;;9.60;99.90;;;;;;4920137;29;19927;-86
2022/01/11 03:08:24;;;;;;;;;;;9.50;99.90;;;;;;4919974;29;19939;-86
2022/01/11 03:10:51;;;;;;;;;;;9.50;99.90;;;;;;4920042;29;19928;-86
2022/01/11 03:13:20;;;;;;;;;;;9.50;99.90;;;;;;4919531;29;19927;-86
2022/01/11 03:15:48;;;;;;;;;;;9.50;99.90;;;;;;4919099;29;19951;-87
2022/01/11 03:18:16;;;;;;;;;;;9.50;99.90;;;;;;4919588;29;19927;-86
2022/01/11 03:20:44;;;;;;;;;;;9.40;99.90;;;;;;4919848;29;20346;-86
2022/01/11 03:23:12;;;;;;;;;;;9.40;99.90;;;;;;4918968;29;19970;-87
2022/01/11 03:25:39;;;;;;;;;;;8.10;99.90;;;;;;4919714;29;20293;-86
2022/01/11 03:28:05;;;;;;;;;;;9.40;99.90;;;;;;4919770;29;19974;-86
2022/01/11 03:30:34;;;;;;;;;;;9.40;99.90;;;;;;4919711;29;19975;-86
2022/01/11 03:33:01;;;;;;;;;;;9.40;99.90;;;;;;4919009;29;20286;-86
2022/01/11 03:35:28;;;;;;;;;;;9.40;99.90;;;;;;4919383;29;20370;-86
2022/01/11 03:37:55;;;;;;;;;;;9.30;99.90;;;;;;4919525;29;19934;-86
2022/01/11 03:40:24;;;;;;;;;;;9.30;99.90;;;;;;4918524;29;19928;-87
2022/01/11 03:42:51;;;;;;;;;;;9.30;99.90;;;;;;4918415;29;19927;-86
2022/01/11 03:45:20;;;;;;;;;;;9.30;99.90;;;;;;4917514;29;19927;-86
2022/01/11 03:47:49;;;;;;;;;;;9.30;99.90;;;;;;4919010;29;19934;-87
2022/01/11 03:50:16;;;;;;;;;;;9.30;99.90;;;;;;4919476;29;19955;-86
2022/01/11 03:52:44;;;;;;;;;;;9.30;99.90;;;;;;4918757;29;19927;-87
2022/01/11 03:55:12;;;;;;;;;;;9.30;99.90;;;;;;4919559;29;19927;-86
2022/01/11 03:57:40;;;;;;;;;;;9.20;99.90;;;;;;4919464;29;20282;-87
2022/01/11 04:00:09;;;;;;;;;;;9.20;99.90;;;;;;4918954;29;19983;-86
2022/01/11 04:02:36;;;;;;;;;;;9.20;99.90;;;;;;4919157;29;19979;-86
2022/01/11 04:05:06;;;;;;;;;;;9.20;99.90;;;;;;4919288;29;19927;-86
2022/01/11 04:07:33;;;;;;;;;;;9.20;99.90;;;;;;4919169;29;19927;-87
2022/01/11 04:10:00;;;;;;;;;;;9.20;99.90;;;;;;4918874;29;19983;-87
2022/01/11 04:12:27;;;;;;;;;;;9.10;99.90;;;;;;4918760;29;19931;-87
2022/01/11 04:14:53;;;;;;;;;;;9.10;99.90;;;;;;4918984;29;19931;-86
2022/01/11 04:17:20;;;;;;;;;;;9.10;99.90;;;;;;4918979;29;19931;-87
2022/01/11 04:19:47;;;;;;;;;;;9.10;99.90;;;;;;4918413;29;19931;-86
2022/01/11 04:22:15;;;;;;;;;;;9.10;99.90;;;;;;4918782;29;19927;-87
2022/01/11 04:24:42;;;;;;;;;;;9.10;99.90;;;;;;4903581;29;19986;-86
2022/01/11 04:27:09;;;;;;;;;;;9.10;99.90;;;;;;4913176;29;19931;-86
2022/01/11 04:29:36;;;;;;;;;;;9.10;99.90;;;;;;4918891;29;19935;-87
2022/01/11 04:32:03;;;;;;;;;;;9.00;99.90;;;;;;4917916;29;19927;-85
2022/01/11 04:34:30;;;;;;;;;;;9.00;99.90;;;;;;4918594;29;19990;-87
2022/01/11 04:36:57;;;;;;;;;;;9.00;99.90;;;;;;4918399;29;19975;-87
2022/01/11 04:39:25;;;;;;;;;;;9.00;99.90;;;;;;4917923;29;19931;-86
2022/01/11 04:41:52;;;;;;;;;;;9.00;99.90;;;;;;4918428;29;19931;-86
2022/01/11 04:44:19;;;;;;;;;;;8.90;99.90;;;;;;4918342;29;19927;-86
2022/01/11 04:46:46;;;;;;;;;;;8.90;99.90;;;;;;4918163;29;19983;-86
2022/01/11 04:49:13;;;;;;;;;;;8.90;99.90;;;;;;4917741;29;20356;-86
2022/01/11 04:51:40;;;;;;;;;;;9.00;99.90;;;;;;4917191;29;19927;-86
2022/01/11 04:54:07;;;;;;;;;;;8.90;99.90;;;;;;4917929;29;19927;-87
2022/01/11 04:56:37;;;;;;;;;;;8.90;99.90;;;;;;4917035;29;20377;-87
2022/01/11 04:59:04;;;;;;;;;;;8.90;99.90;;;;;;4917393;29;19978;-86
2022/01/11 05:01:31;;;;;;;;;;;8.90;99.90;;;;;;4917430;29;19975;-87
2022/01/11 05:03:58;;;;;;;;;;;8.90;99.90;;;;;;4917911;29;19931;-86
2022/01/11 05:06:25;;;;;;;;;;;8.90;99.90;;;;;;4915444;29;19983;-86
2022/01/11 05:08:51;;;;;;;;;;;8.90;99.90;;;;;;4918106;29;19931;-86
2022/01/11 05:11:18;;;;;;;;;;;8.90;99.90;;;;;;4917562;29;19931;-86
2022/01/11 05:13:46;;;;;;;;;;;8.90;99.90;;;;;;4917943;29;20446;-87
2022/01/11 05:16:13;;;;;;;;;;;8.90;99.90;;;;;;4917390;29;19954;-87
2022/01/11 05:18:40;;;;;;;;;;;8.90;99.90;;;;;;4918157;29;19927;-86
2022/01/11 05:21:06;;;;;;;;;;;8.90;99.90;;;;;;4915994;29;19927;-86
2022/01/11 05:23:34;;;;;;;;;;;8.80;99.90;;;;;;4917822;29;20382;-87
2022/01/11 05:26:01;;;;;;;;;;;8.90;99.90;;;;;;4917651;29;20027;-86
2022/01/11 05:28:28;;;;;;;;;;;8.80;99.90;;;;;;4918081;29;20361;-87
2022/01/11 05:30:56;;;;;;;;;;;8.90;99.90;;;;;;4917551;29;19983;-87
2022/01/11 05:33:23;;;;;;;;;;;8.90;99.90;;;;;;4917638;29;19973;-87
2022/01/11 05:35:50;;;;;;;;;;;8.90;99.90;;;;;;4916919;29;19927;-86
2022/01/11 05:38:17;;;;;;;;;;;8.90;99.90;;;;;;4919366;29;19975;-87
2022/01/11 05:40:44;;;;;;;;;;;8.80;99.90;;;;;;4921866;29;19927;-86
2022/01/11 05:43:12;;;;;;;;;;;8.90;99.90;;;;;;4921870;29;20342;-86
2022/01/11 05:45:39;;;;;;;;;;;8.90;99.90;;;;;;4921054;29;20790;-86
2022/01/11 05:48:07;;;;;;;;;;;8.80;99.90;;;;;;4921311;29;19927;-87
2022/01/11 05:50:34;;;;;;;;;;;8.80;99.90;;;;;;4921725;29;19931;-86
2022/01/11 05:53:01;;;;;;;;;;;8.80;99.90;;;;;;4921500;29;19962;-87
2022/01/11 05:55:28;;;;;;;;;;;8.80;99.90;;;;;;4921105;29;19931;-86
2022/01/11 05:57:55;;;;;;;;;;;8.80;99.90;;;;;;4921333;29;19927;-86
2022/01/11 06:00:21;;;;;;;;;;;8.80;99.90;;;;;;4921455;29;20374;-86
2022/01/11 06:02:52;;;;;;;;;;;8.80;99.90;;;;;;4921181;29;19927;-87
2022/01/11 06:05:21;;;;;;;;;;;8.80;99.90;;;;;;4921528;29;19927;-87
2022/01/11 06:07:47;;;;;;;;;;;8.90;99.90;;;;;;4920751;29;19927;-87
2022/01/11 06:10:15;;;;;;;;;;;8.80;99.90;;;;;;4921478;29;19934;-86
2022/01/11 06:12:42;;;;;;;;;;;8.80;99.90;;;;;;4920966;29;19927;-86
2022/01/11 06:15:09;;;;;;;;;;;8.80;99.90;;;;;;4920925;29;19927;-86
2022/01/11 06:17:36;;;;;;;;;;;8.70;99.90;;;;;;4920603;29;19928;-86
2022/01/11 06:20:03;;;;;;;;;;;8.80;99.90;;;;;;4920533;29;19934;-86
2022/01/11 06:22:31;;;;;;;;;;;8.80;99.90;;;;;;4920866;29;19998;-86
2022/01/11 06:25:01;;;;;;;;;;;8.70;99.90;;;;;;4920627;29;19975;-87
2022/01/11 06:27:28;;;;;;;;;;;8.80;99.90;;;;;;4919152;29;19977;-87
2022/01/11 06:29:55;;;;;;;;;;;8.80;99.90;;;;;;4915418;29;19934;-86
2022/01/11 06:32:22;;;;;;;;;;;8.80;99.90;;;;;;4901614;29;19927;-86
2022/01/11 06:34:48;;;;;;;;;;;8.70;99.90;;;;;;4901927;29;19928;-87
2022/01/11 06:37:15;;;;;;;;;;;8.70;99.90;;;;;;4911650;29;19928;-87
2022/01/11 06:39:44;;;;;;;;;;;9.00;99.90;;;;;;4920097;29;20378;-87
2022/01/11 06:42:10;;;;;;;;;;;8.70;99.90;;;;;;4920401;29;19931;-86
2022/01/11 06:44:38;;;;;;;;;;;8.70;99.90;;;;;;4920558;29;19934;-87
2022/01/11 06:47:05;;;;;;;;;;;8.70;99.90;;;;;;4919480;29;19962;-87
2022/01/11 06:49:32;;;;;;;;;;;8.70;99.90;;;;;;4918995;29;20017;-87
2022/01/11 06:51:59;;;;;;;;;;;8.70;99.90;;;;;;4920276;29;19975;-87
2022/01/11 06:54:26;;;;;;;;;;;8.70;99.90;;;;;;4919752;29;20433;-87
2022/01/11 06:56:54;;;;;;;;;;;8.70;99.90;;;;;;4920183;29;19931;-86
2022/01/11 06:59:21;;;;;;;;;;;8.70;99.90;;;;;;4919729;29;19977;-87
2022/01/11 07:01:47;;;;;;;;;;;8.60;99.90;;;;;;4919736;29;19983;-87
2022/01/11 07:04:14;;;;;;;;;;;8.60;99.90;;;;;;4919447;29;19983;-86
2022/01/11 07:06:41;;;;;;;;;;;8.60;99.90;;;;;;4919404;29;19994;-87
2022/01/11 07:09:08;;;;;;;;;;;8.60;99.90;;;;;;4919648;29;19926;-87
2022/01/11 07:11:35;;;;;;;;;;;8.60;99.90;;;;;;4919567;29;19927;-86
2022/01/11 07:14:04;;;;;;;;;;;8.60;99.90;;;;;;4920767;29;19982;-87
2022/01/11 07:16:31;;;;;;;;;;;8.10;99.90;;;;;;4919380;29;19954;-86
2022/01/11 07:18:58;;;;;;;;;;;8.60;99.90;;;;;;4919916;29;19935;-87
2022/01/11 07:21:25;;;;;;;;;;;9.10;99.90;;;;;;4920248;29;19931;-87
2022/01/11 07:23:51;;;;;;;;;;;8.50;99.90;;;;;;4919978;29;19934;-87
2022/01/11 07:26:18;;;;;;;;;;;8.50;99.90;;;;;;4918302;29;19971;-87
2022/01/11 07:28:46;;;;;;;;;;;8.50;99.90;;;;;;4919885;29;19991;-87
2022/01/11 07:31:14;;;;;;;;;;;8.40;99.90;;;;;;4919200;29;20420;-87
2022/01/11 07:33:41;;;;;;;;;;;8.40;99.90;;;;;;4919987;29;19931;-87
2022/01/11 07:36:08;;;;;;;;;;;8.40;99.90;;;;;;4918949;29;20000;-87
2022/01/11 07:38:35;;;;;;;;;;;8.60;99.90;;;;;;4919829;29;19962;-87
2022/01/11 07:41:01;;;;;;;;;;;8.40;99.90;;;;;;4919249;29;19928;-87
2022/01/11 07:43:28;;;;;;;;;;;8.40;99.90;;;;;;4919680;29;19931;-86
2022/01/11 07:45:55;;;;;;;;;;;8.30;99.90;;;;;;4919782;29;19927;-87
2022/01/11 07:48:23;;;;;;;;;;;8.30;99.90;;;;;;4918682;29;19927;-87
2022/01/11 07:50:50;;;;;;;;;;;8.30;99.90;;;;;;4919584;29;19927;-87
2022/01/11 07:53:17;;;;;;;;;;;8.20;99.90;;;;;;4919078;29;20342;-86
2022/01/11 07:55:43;;;;;;;;;;;8.20;99.90;;;;;;4919062;29;20390;-86
2022/01/11 07:58:10;;;;;;;;;;;8.40;99.90;;;;;;4918231;29;20334;-86
2022/01/11 08:00:37;;;;;;;;;;;8.20;99.90;;;;;;4919000;29;19934;-87
2022/01/11 08:03:04;;;;;;;;;;;8.20;99.90;;;;;;4917986;29;19927;-88
2022/01/11 08:05:32;;;;;;;;;;;8.50;99.90;;;;;;4919976;29;20003;-86
2022/01/11 08:07:59;;;;;;;;;;;8.10;99.90;;;;;;4918628;29;19931;-86
2022/01/11 08:10:25;;;;;;;;;;;8.10;99.90;;;;;;4921374;29;19934;-87
2022/01/11 08:12:52;;;;;;;;;;;8.50;99.90;;;;;;4919643;29;20014;-87
2022/01/11 08:15:19;;;;;;;;;;;8.10;99.90;;;;;;4918018;29;20398;-86
2022/01/11 08:17:47;;;;;;;;;;;8.20;99.90;;;;;;4921453;29;19927;-88
2022/01/11 08:20:13;;;;;;;;;;;8.00;99.90;;;;;;4919021;29;19931;-85
2022/01/11 08:22:42;;;;;;;;;;;8.10;99.90;;;;;;4918742;29;19984;-87
2022/01/11 08:25:10;;;;;;;;;;;8.00;99.90;;;;;;4918411;29;19957;-87
2022/01/11 08:27:37;;;;;;;;;;;8.10;99.90;;;;;;4920330;29;19999;-87
2022/01/11 08:30:04;;;;;;;;;;;8.00;99.90;;;;;;4918356;29;20334;-86
2022/01/11 08:32:31;;;;;;;;;;;8.80;99.90;;;;;;4918421;29;19931;-86
2022/01/11 08:34:58;;;;;;;;;;;8.10;99.90;;;;;;4918733;29;19928;-86
2022/01/11 08:37:25;;;;;;;;;;;7.90;99.90;;;;;;4905986;29;19934;-87
2022/01/11 08:39:53;;;;;;;;;;;7.90;99.90;;;;;;4911785;29;19998;-87
2022/01/11 08:42:20;;;;;;;;;;;7.90;99.90;;;;;;4918781;29;19965;-86
2022/01/11 08:44:49;;;;;;;;;;;9.90;99.90;;;;;;4917935;29;19939;-85
2022/01/11 08:47:17;;;;;;;;;;;7.90;99.90;;;;;;4912462;29;19934;-88
2022/01/11 08:49:44;;;;;;;;;;;7.80;99.90;;;;;;4916971;29;19935;-85
2022/01/11 08:52:11;;;;;;;;;;;7.90;99.90;;;;;;4920096;29;19927;-88
2022/01/11 08:54:37;;;;;;;;;;;7.80;99.90;;;;;;4916785;29;19934;-88
2022/01/11 08:57:06;;;;;;;;;;;7.80;99.90;;;;;;4917279;29;19935;-87
2022/01/11 08:59:33;;;;;;;;;;;7.70;99.90;;;;;;4911761;29;19952;-86
2022/01/11 09:02:01;;;;;;;;;;;7.80;99.90;;;;;;4913995;29;19942;-87
2022/01/11 09:04:28;;;;;;;;;;;7.80;99.90;;;;;;4899101;29;19942;-89
2022/01/11 09:06:57;;;;;;;;;;;7.80;99.90;;;;;;4888742;29;19935;-87
2022/01/11 09:09:26;;;;;;;;;;;8.30;99.90;;;;;;4854773;29;19926;-86
2022/01/11 09:11:53;;;;;;;;;;;7.90;99.90;;;;;;4860042;29;19927;-88
2022/01/11 09:14:22;;;;;;;;;;;7.80;99.90;;;;;;4893892;29;19993;-88
2022/01/11 09:16:49;;;;;;;;;;;7.80;99.90;;;;;;4856734;29;19942;-88
2022/01/11 09:19:18;;;;;;;;;;;7.80;99.90;;;;;;4844101;29;19931;-88
2022/01/11 09:21:45;;;;;;;;;;;7.70;99.90;;;;;;4847537;29;20758;-87
2022/01/11 09:24:12;;;;;;;;;;;7.70;99.90;;;;;;4889500;29;20021;-86
2022/01/11 09:26:39;;;;;;;;;;;8.10;99.90;;;;;;4864664;29;20682;-85
2022/01/11 09:29:06;;;;;;;;;;;7.70;99.90;;;;;;4843495;29;20520;-86
2022/01/11 09:31:35;;;;;;;;;;;6.60;99.90;;;;;;4859992;29;20975;-86
2022/01/11 09:34:02;;;;;;;;;;;7.70;99.90;;;;;;4852920;29;20457;-88
2022/01/11 09:36:29;;;;;;;;;;;7.90;99.90;;;;;;4853772;29;20865;-86
2022/01/11 09:38:56;;;;;;;;;;;7.10;99.90;;;;;;4885858;29;19939;-86
2022/01/11 09:41:23;;;;;;;;;;;7.70;99.90;;;;;;4899042;29;19935;-87
2022/01/11 09:43:52;;;;;;;;;;;7.70;99.90;;;;;;4908373;29;19935;-87
2022/01/11 09:46:19;;;;;;;;;;;7.60;99.90;;;;;;4900356;29;19966;-86
2022/01/11 09:48:48;;;;;;;;;;;7.70;99.90;;;;;;4913135;29;21876;-86
2022/01/11 09:51:15;;;;;;;;;;;7.70;99.90;;;;;;4903523;29;19927;-85
2022/01/11 09:53:42;;;;;;;;;;;7.70;99.90;;;;;;4902787;29;20030;-86
2022/01/11 09:56:10;;;;;;;;;;;7.70;99.90;;;;;;4901134;29;19935;-87
2022/01/11 09:58:36;;;;;;;;;;;7.60;99.90;;;;;;4906343;29;19930;-87
2022/01/11 10:01:04;;;;;;;;;;;7.70;99.90;;;;;;4918263;29;20002;-87
2022/01/11 10:03:31;;;;;;;;;;;7.70;99.90;;;;;;4911388;29;19935;-86
2022/01/11 10:06:13;;;;;;;;;;;7.60;99.90;;;;;;4911733;29;19935;-87
2022/01/11 10:08:40;;;;;;;;;;;7.70;99.90;;;;;;4908223;29;19994;-86
2022/01/11 10:11:07;;;;;;;;;;;7.40;99.90;;;;;;4909067;29;19927;-86
2022/01/11 10:13:35;;;;;;;;;;;7.70;99.90;;;;;;4908215;29;20042;-88
2022/01/11 10:16:18;;;;;;;;;;;7.80;99.90;;;;;;4919376;29;19934;-87
2022/01/11 10:18:44;;;;;;;;;;;7.80;99.90;;;;;;4906618;29;19927;-87
2022/01/11 10:21:26;;;;;;;;;;;7.80;99.90;;;;;;4917341;29;19935;-88
2022/01/11 10:23:54;;;;;;;;;;;7.90;99.90;;;;;;4912788;29;19946;-86
2022/01/11 10:26:36;;;;;;;;;;;7.90;99.90;;;;;;4892184;29;19927;-87
2022/01/11 10:29:03;;;;;;;;;;;7.80;99.90;;;;;;4915610;29;19998;-88
2022/01/11 10:31:33;;;;;;;;;;;7.90;99.90;;;;;;4918294;29;19931;-88
2022/01/11 10:34:00;;;;;;;;;;;7.90;99.90;;;;;;4914919;29;19983;-87
2022/01/11 10:36:42;;;;;;;;;;;7.90;99.90;;;;;;4915560;29;19935;-87
2022/01/11 10:39:24;;;;;;;;;;;8.00;99.90;;;;;;4915199;29;20402;-87
2022/01/11 10:41:52;;;;;;;;;;;8.10;99.90;;;;;;4916021;28;19961;-88
2022/01/11 10:44:40;;;;;;;;;;;8.20;99.90;;;;;;4915044;29;19979;-86
2022/01/11 10:47:07;;;;;;;;;;;8.20;99.90;;;;;;4911768;29;19939;-87
2022/01/11 10:49:35;;;;;;;;;;;8.20;99.90;;;;;;4909986;29;20500;-87
2022/01/11 10:52:19;;;;;;;;;;;8.30;99.90;;;;;;4915475;29;19938;-88
2022/01/11 10:54:46;;;;;;;;;;;8.20;99.90;;;;;;4904331;29;19941;-86
2022/01/11 10:57:31;;;;;;;;;;;8.10;99.90;;;;;;4915724;29;19970;-88
2022/01/11 11:00:08;;;;;;;;;;;8.20;99.90;;;;;;4915874;29;19927;-89
2022/01/11 11:02:36;;;;;;;;;;;8.40;99.90;;;;;;4907821;29;19935;-88
2022/01/11 11:05:11;;;;;;;;;;;8.30;99.90;;;;;;4910194;29;19935;-87
2022/01/11 11:07:41;;;;;;;;;;;8.50;99.90;;;;;;4914059;29;20537;-87
2022/01/11 11:10:08;;;;;;;;;;;8.20;99.90;;;;;;4902814;29;19935;-88
2022/01/11 11:12:36;;;;;;;;;;;8.20;99.90;;;;;;4914543;29;20634;-88
2022/01/11 11:15:05;;;;;;;;;;;8.20;99.90;;;;;;4913861;29;19931;-88
2022/01/11 11:17:33;;;;;;;;;;;8.10;99.90;;;;;;4910718;29;19935;-87
2022/01/11 11:20:01;;;;;;;;;;;8.10;99.90;;;;;;4901996;29;19936;-87
2022/01/11 11:22:28;;;;;;;;;;;8.10;99.90;;;;;;4918902;29;19934;-88
2022/01/11 11:24:55;;;;;;;;;;;8.10;99.90;;;;;;4919769;29;20409;-88
2022/01/11 11:27:23;;;;;;;;;;;8.00;99.90;;;;;;4910009;29;19966;-89
2022/01/11 11:29:51;;;;;;;;;;;8.20;99.90;;;;;;4917025;29;19946;-89
2022/01/11 11:32:19;;;;;;;;;;;8.20;99.90;;;;;;4911401;29;19931;-88
2022/01/11 11:34:49;;;;;;;;;;;6.80;99.90;;;;;;4914208;29;19934;-88
2022/01/11 11:37:17;;;;;;;;;;;8.20;99.90;;;;;;4919131;29;19927;-88
2022/01/11 11:39:45;;;;;;;;;;;8.20;99.90;;;;;;4916045;29;19935;-88
2022/01/11 11:42:16;;;;;;;;;;;8.20;99.90;;;;;;4881412;29;19988;-90
2022/01/11 11:44:44;;;;;;;;;;;8.20;99.90;;;;;;4906117;29;19951;-88
2022/01/11 11:47:12;;;;;;;;;;;8.20;99.90;;;;;;4909971;29;19927;-90
2022/01/11 11:49:44;;;;;;;;;;;8.20;99.90;;;;;;4917869;29;19927;-90
2022/01/11 11:52:21;;;;;;;;;;;8.30;99.90;;;;;;4917058;29;20051;-90
2022/01/11 11:54:49;;;;;;;;;;;8.30;99.90;;;;;;4887412;29;20014;-88
2022/01/11 11:57:17;;;;;;;;;;;8.20;99.90;;;;;;4907026;29;20311;-92
2022/01/11 11:59:51;;;;;;;;;;;8.40;99.90;;;;;;4916377;29;19999;-89
2022/01/11 12:02:34;;;;;;;;;;;8.40;99.90;;;;;;4912690;29;19957;-89
2022/01/11 12:05:02;;;;;;;;;;;8.50;99.90;;;;;;4911556;29;19927;-89
2022/01/11 12:07:32;;;;;;;;;;;8.60;99.90;;;;;;4915063;29;19997;-88
2022/01/11 12:09:59;;;;;;;;;;;8.40;99.90;;;;;;4910482;29;20010;-90
2022/01/11 12:12:42;;;;;;;;;;;8.50;99.90;;;;;;4909126;29;19931;-89
2022/01/11 12:15:32;;;;;;;;;;;8.80;99.90;;;;;;4909704;29;19934;-89
2022/01/11 12:18:13;;;;;;;;;;;8.80;99.90;;;;;;4918056;29;19932;-89
2022/01/11 12:20:44;;;;;;;;;;;8.60;99.90;;;;;;4911763;29;19931;-88
2022/01/11 12:23:13;;;;;;;;;;;8.60;99.90;;;;;;4915373;29;20059;-88
2022/01/11 12:25:42;;;;;;;;;;;8.60;99.90;;;;;;4919785;29;19970;-86
2022/01/11 12:28:16;;;;;;;;;;;8.60;99.90;;;;;;4923515;29;19936;-87
2022/01/11 12:30:43;;;;;;;;;;;8.60;99.90;;;;;;4927945;29;19953;-89
2022/01/11 12:33:12;;;;;;;;;;;8.70;99.90;;;;;;4900159;29;19933;-87
2022/01/11 12:35:54;;;;;;;;;;;8.60;99.90;;;;;;4912724;29;19927;-88
2022/01/11 12:38:21;;;;;;;;;;;8.60;99.90;;;;;;4911628;29;19934;-88
2022/01/11 12:40:48;;;;;;;;;;;8.90;99.90;;;;;;4909433;29;19934;-88
2022/01/11 12:43:19;;;;;;;;;;;9.10;99.90;;;;;;4912668;29;19927;-89
2022/01/11 12:46:07;;;;;;;;;;;7.40;99.90;;;;;;4912997;29;19970;-89
2022/01/11 12:48:53;;;;;;;;;;;8.50;99.90;;;;;;4907117;29;19995;-89
2022/01/11 12:51:27;;;;;;;;;;;8.70;99.90;;;;;;4911851;29;20045;-89
2022/01/11 12:54:13;;;;;;;;;;;8.70;99.90;;;;;;4917057;29;19931;-90
2022/01/11 12:56:40;;;;;;;;;;;8.70;99.90;;;;;;4906455;29;19950;-90
2022/01/11 12:59:07;;;;;;;;;;;8.90;99.90;;;;;;4911765;29;19994;-90
2022/01/11 13:01:34;;;;;;;;;;;8.80;99.90;;;;;;4912618;29;19990;-89
2022/01/11 13:04:02;;;;;;;;;;;8.70;99.90;;;;;;4917559;29;19957;-88
2022/01/11 13:06:31;;;;;;;;;;;8.80;99.90;;;;;;4897576;29;19927;-86
2022/01/11 13:08:59;;;;;;;;;;;8.80;99.90;;;;;;4911990;29;19978;-88
2022/01/11 13:11:26;;;;;;;;;;;8.70;99.90;;;;;;4906586;29;19935;-90
2022/01/11 13:14:31;;;;;;;;;;;9.30;99.90;;;;;;4895580;29;19946;-89
2022/01/11 13:17:04;;;;;;;;;;;9.90;99.90;;;;;;4903682;29;19935;-90
2022/01/11 13:19:40;;;;;;;;;;;10.40;99.90;;;;;;4907887;29;20025;-89
2022/01/11 13:22:12;;;;;;;;;;;11.10;99.90;;;;;;4903760;29;19938;-90
2022/01/11 13:24:46;;;;;;;;;;;11.40;99.90;;;;;;4902365;29;20022;-89
2022/01/11 13:27:16;;;;;;;;;;;10.90;99.90;;;;;;4908687;29;19942;-90
2022/01/11 13:29:45;;;;;;;;;;;10.70;99.90;;;;;;4909665;29;19927;-90
2022/01/11 13:32:12;;;;;;;;;;;10.80;99.90;;;;;;4912788;29;19927;-89
2022/01/11 13:34:40;;;;;;;;;;;10.80;99.90;;;;;;4911515;29;19934;-89
2022/01/11 13:37:09;;;;;;;;;;;11.40;99.90;;;;;;4916440;29;20723;-89
2022/01/11 13:39:40;;;;;;;;;;;10.90;99.90;;;;;;4910512;29;19949;-90
2022/01/11 13:42:08;;;;;;;;;;;8.60;99.90;;;;;;4917984;29;19935;-89
2022/01/11 13:44:37;;;;;;;;;;;10.30;99.90;;;;;;4912705;29;19942;-89
2022/01/11 13:47:15;;;;;;;;;;;10.50;99.90;;;;;;4913528;29;20371;-89
2022/01/11 13:49:43;;;;;;;;;;;10.70;99.90;;;;;;4914518;29;20040;-89
2022/01/11 13:52:12;;;;;;;;;;;10.60;99.90;;;;;;4884037;29;20003;-88
2022/01/11 13:54:41;;;;;;;;;;;12.60;99.90;;;;;;4898078;29;19954;-88
2022/01/11 13:57:13;;;;;;;;;;;11.10;99.90;;;;;;4916370;29;20000;-89
2022/01/11 13:59:40;;;;;;;;;;;11.00;99.90;;;;;;4917042;29;20374;-88
2022/01/11 14:02:11;;;;;;;;;;;11.10;99.90;;;;;;4915289;29;20006;-88
2022/01/11 14:04:39;;;;;;;;;;;11.20;99.90;;;;;;4917198;29;19927;-89
2022/01/11 14:07:12;;;;;;;;;;;11.30;99.90;;;;;;4913927;29;19927;-88
2022/01/11 14:09:53;;;;;;;;;;;11.30;99.90;;;;;;4918305;29;19935;-86
2022/01/11 14:12:25;;;;;;;;;;;11.40;99.90;;;;;;4917030;29;19935;-87
2022/01/11 14:14:57;;;;;;;;;;;11.30;99.90;;;;;;4919266;29;20293;-88
2022/01/11 14:17:25;;;;;;;;;;;11.10;99.90;;;;;;4917249;29;19935;-88
2022/01/11 14:19:53;;;;;;;;;;;10.90;99.90;;;;;;4916619;29;20259;-88
2022/01/11 14:22:22;;;;;;;;;;;10.70;99.90;;;;;;4916007;29;19941;-88
2022/01/11 14:24:52;;;;;;;;;;;11.00;99.90;;;;;;4912799;29;19935;-86
2022/01/11 14:27:20;;;;;;;;;;;11.00;99.90;;;;;;4916069;29;19935;-87
2022/01/11 14:29:55;;;;;;;;;;;11.20;99.90;;;;;;4905731;29;19935;-88
2022/01/11 14:32:23;;;;;;;;;;;12.20;99.90;;;;;;4907061;29;20422;-88
2022/01/11 14:37:59;;;;;;;;;;;11.90;99.90;;;;;;4912496;29;19974;-88
2022/01/11 14:40:32;;;;;;;;;;;11.40;99.90;;;;;;4923435;29;20385;-89
2022/01/11 14:43:20;;;;;;;;;;;12.60;99.90;;;;;;4914169;29;19931;-89